Time;durP1;ratioP1;P1;durP2;ratioP2;P2;SDS_P1;SDS_P2;PMS_P1;PMS_P2;Temp;Humidity;BMP_temperature;BMP_pressure;BME280_temperature;BME280_humidity;BME280_pressure;Samples;Min_cycle;Max_cycle;Signal;HPM_P1;HPM_P2
2022/07/23 00:01:35;;;;;;;;;;;13.80;99.90;;;;;;4958615;28;19917;-74
2022/07/23 00:04:01;;;;;;;;;;;13.80;99.90;;;;;;4955375;28;19922;-74
2022/07/23 00:06:26;;;;;;;;;;;13.90;99.90;;;;;;4937748;28;19925;-75
2022/07/23 00:08:52;;;;;;;;;;;13.90;99.90;;;;;;4961530;28;20439;-74
2022/07/23 00:11:17;;;;;;;;;;;13.90;99.90;;;;;;4957138;28;20272;-74
2022/07/23 00:13:43;;;;;;;;;;;13.90;99.90;;;;;;4959012;28;19921;-74
2022/07/23 00:16:09;;;;;;;;;;;13.90;99.90;;;;;;4953625;28;19969;-74
2022/07/23 00:18:34;;;;;;;;;;;13.80;99.90;;;;;;4962103;28;20391;-74
2022/07/23 00:21:00;;;;;;;;;;;13.80;99.90;;;;;;4945434;28;19910;-74
2022/07/23 00:23:26;;;;;;;;;;;13.70;99.90;;;;;;4941022;28;19914;-74
2022/07/23 00:25:52;;;;;;;;;;;13.70;99.90;;;;;;4958487;28;19918;-74
2022/07/23 00:28:18;;;;;;;5.70;3.97;;;13.60;99.90;;;;;;4948305;28;19914;-74
2022/07/23 00:30:44;;;;;;;6.40;3.90;;;13.60;99.90;;;;;;4946005;28;20137;-75
2022/07/23 00:33:10;;;;;;;;;;;13.60;99.90;;;;;;4957337;28;21554;-74
2022/07/23 00:35:37;;;;;;;;;;;13.60;99.90;;;;;;4957645;28;19906;-74
2022/07/23 00:38:03;;;;;;;;;;;13.50;99.90;;;;;;4959905;28;19932;-74
2022/07/23 00:40:29;;;;;;;;;;;13.50;99.90;;;;;;4962145;28;20305;-74
2022/07/23 00:42:55;;;;;;;;;;;13.60;99.90;;;;;;4952195;28;20416;-74
2022/07/23 00:45:20;;;;;;;;;;;13.70;99.90;;;;;;4959209;28;20028;-74
2022/07/23 00:47:46;;;;;;;;;;;13.80;99.90;;;;;;4957495;28;20393;-75
2022/07/23 00:50:12;;;;;;;;;;;13.90;99.90;;;;;;4956022;28;19924;-74
2022/07/23 00:52:38;;;;;;;;;;;14.00;99.90;;;;;;4964071;28;19961;-74
2022/07/23 00:55:04;;;;;;;;;;;14.10;99.90;;;;;;4966553;28;19949;-74
2022/07/23 00:57:30;;;;;;;;;;;14.20;99.90;;;;;;4965541;28;19941;-74
2022/07/23 00:59:56;;;;;;;;;;;14.30;99.90;;;;;;4962784;28;19924;-74
2022/07/23 01:02:21;;;;;;;;;;;14.30;99.90;;;;;;4953947;28;20373;-74
2022/07/23 01:04:47;;;;;;;;;;;14.40;99.90;;;;;;4946895;28;19928;-74
2022/07/23 01:07:12;;;;;;;;;;;14.50;99.90;;;;;;4965147;28;20313;-74
2022/07/23 01:09:38;;;;;;;;;;;14.60;99.90;;;;;;4963995;28;20307;-74
2022/07/23 01:12:05;;;;;;;;;;;14.70;99.90;;;;;;4958344;28;19976;-74
2022/07/23 01:14:30;;;;;;;;;;;14.70;99.90;;;;;;4963379;28;19914;-75
2022/07/23 01:16:56;;;;;;;;;;;14.70;99.90;;;;;;4956037;28;20274;-74
2022/07/23 01:19:21;;;;;;;;;;;14.70;99.90;;;;;;4959406;28;19913;-74
2022/07/23 01:21:49;;;;;;;;;;;14.80;99.90;;;;;;4963968;28;19976;-74
2022/07/23 01:24:15;;;;;;;;;;;14.80;99.90;;;;;;4956839;28;19914;-74
2022/07/23 01:26:42;;;;;;;;;;;14.80;99.90;;;;;;4962655;28;20502;-74
2022/07/23 01:29:07;;;;;;;;;;;14.80;99.90;;;;;;4962799;28;19914;-75
2022/07/23 01:31:33;;;;;;;;;;;14.80;99.90;;;;;;4963693;28;20376;-75
2022/07/23 01:33:58;;;;;;;;;;;14.80;99.90;;;;;;4934022;28;19921;-74
2022/07/23 01:36:24;;;;;;;;;;;14.70;99.90;;;;;;4957958;28;20370;-75
2022/07/23 01:38:50;;;;;;;;;;;14.70;99.90;;;;;;4958080;28;19965;-74
2022/07/23 01:41:16;;;;;;;;;;;14.80;99.90;;;;;;4953737;28;20038;-74
2022/07/23 01:43:41;;;;;;;;;;;14.90;99.90;;;;;;4954407;28;20397;-74
2022/07/23 01:46:07;;;;;;;;;;;14.90;99.90;;;;;;4958844;28;19961;-74
2022/07/23 01:48:33;;;;;;;;;;;14.90;99.90;;;;;;4957560;28;20309;-74
2022/07/23 01:50:58;;;;;;;;;;;14.90;99.90;;;;;;4951164;28;20348;-74
2022/07/23 01:53:24;;;;;;;;;;;15.00;99.90;;;;;;4957113;28;20203;-74
2022/07/23 01:55:49;;;;;;;;;;;15.00;99.90;;;;;;4955715;28;19918;-75
2022/07/23 01:58:15;;;;;;;;;;;15.00;99.90;;;;;;4957289;28;19944;-75
2022/07/23 02:00:40;;;;;;;;;;;14.90;99.90;;;;;;4955950;28;19956;-73
2022/07/23 02:03:06;;;;;;;;;;;14.90;99.90;;;;;;4958320;28;20063;-74
2022/07/23 02:05:32;;;;;;;;;;;15.00;99.90;;;;;;4955320;28;20514;-75
2022/07/23 02:07:58;;;;;;;;;;;14.90;99.90;;;;;;4957483;28;19980;-75
2022/07/23 02:10:23;;;;;;;;;;;14.90;99.90;;;;;;4953990;28;19914;-74
2022/07/23 02:12:49;;;;;;;;;;;14.80;99.90;;;;;;4955796;28;20332;-74
2022/07/23 02:15:15;;;;;;;;;;;14.70;99.90;;;;;;4956915;28;19920;-75
2022/07/23 02:17:40;;;;;;;;;;;14.60;99.90;;;;;;4957283;28;20119;-74
2022/07/23 02:20:08;;;;;;;;;;;14.50;99.90;;;;;;4956278;28;19917;-74
2022/07/23 02:22:34;;;;;;;;;;;14.40;99.90;;;;;;4956535;28;20568;-75
2022/07/23 02:24:59;;;;;;;;;;;14.40;99.90;;;;;;4935756;28;20138;-74
2022/07/23 02:27:25;;;;;;;;;;;14.40;99.90;;;;;;4956920;28;19922;-75
2022/07/23 02:29:50;;;;;;;;;;;14.40;99.90;;;;;;4946100;28;19929;-75
2022/07/23 02:32:16;;;;;;;;;;;14.40;99.90;;;;;;4959193;28;19917;-74
2022/07/23 02:34:41;;;;;;;;;;;14.50;99.90;;;;;;4956562;28;19918;-75
2022/07/23 02:37:08;;;;;;;;;;;14.50;99.90;;;;;;4956871;28;19933;-74
2022/07/23 02:39:34;;;;;;;;;;;14.60;99.90;;;;;;4955881;28;19977;-74
2022/07/23 02:42:00;;;;;;;;;;;14.70;99.90;;;;;;4949425;28;20417;-75
2022/07/23 02:44:25;;;;;;;;;;;14.70;99.90;;;;;;4951932;28;19910;-75
2022/07/23 02:46:51;;;;;;;;;;;14.70;99.90;;;;;;4955662;28;19921;-75
2022/07/23 02:49:16;;;;;;;;;;;14.70;99.90;;;;;;4955713;28;19940;-74
2022/07/23 02:51:42;;;;;;;;;;;14.80;99.90;;;;;;4954770;28;19918;-74
2022/07/23 02:54:08;;;;;;;;;;;14.80;99.90;;;;;;4954018;28;20021;-74
2022/07/23 02:56:33;;;;;;;;;;;14.80;99.90;;;;;;4955929;28;19940;-74
2022/07/23 02:58:59;;;;;;;;;;;14.90;99.90;;;;;;4944339;28;19914;-75
2022/07/23 03:01:24;;;;;;;;;;;14.90;99.90;;;;;;4955684;28;20000;-74
2022/07/23 03:03:50;;;;;;;;;;;14.90;99.90;;;;;;4957783;28;19968;-74
2022/07/23 03:06:15;;;;;;;;;;;14.90;99.90;;;;;;4953391;28;19914;-73
2022/07/23 03:08:41;;;;;;;;;;;15.00;99.90;;;;;;4951801;28;20393;-74
2022/07/23 03:11:10;;;;;;;;;;;15.00;99.90;;;;;;4948164;28;19958;-74
2022/07/23 03:13:39;;;;;;;;;;;15.00;99.90;;;;;;4952732;28;19917;-74
2022/07/23 03:16:05;;;;;;;;;;;15.00;99.90;;;;;;4952885;28;19914;-75
2022/07/23 03:18:31;;;;;;;;;;;15.00;99.90;;;;;;4952780;28;19924;-74
2022/07/23 03:20:56;;;;;;;;;;;15.00;99.90;;;;;;4950416;28;19946;-74
2022/07/23 03:23:22;;;;;;;;;;;15.00;99.90;;;;;;4952547;28;20359;-74
2022/07/23 03:25:50;;;;;;;;;;;15.00;99.90;;;;;;4951728;28;20352;-74
2022/07/23 03:28:16;;;;;;;;;;;15.00;99.90;;;;;;4950174;28;19914;-73
2022/07/23 03:30:42;;;;;;;;;;;15.00;99.90;;;;;;4952804;28;19920;-74
2022/07/23 03:33:08;;;;;;;;;;;15.00;99.90;;;;;;4954628;28;20088;-74
2022/07/23 03:35:34;;;;;;;;;;;15.00;99.90;;;;;;4950550;28;19918;-75
2022/07/23 03:37:59;;;;;;;;;;;15.00;99.90;;;;;;4955408;28;19922;-75
2022/07/23 03:40:25;;;;;;;;;;;15.00;99.90;;;;;;4955084;28;19914;-75
2022/07/23 03:42:50;;;;;;;;;;;15.00;99.90;;;;;;4956077;28;19929;-74
2022/07/23 03:45:16;;;;;;;;;;;15.00;99.90;;;;;;4957749;28;19921;-75
2022/07/23 03:47:43;;;;;;;;;;;15.00;99.90;;;;;;4955950;28;19914;-75
2022/07/23 03:50:08;;;;;;;;;;;15.00;99.90;;;;;;4939467;28;20011;-75
2022/07/23 03:52:34;;;;;;;;;;;14.90;99.90;;;;;;4957057;28;20420;-74
2022/07/23 03:54:59;;;;;;;;;;;14.90;99.90;;;;;;4939348;28;19913;-74
2022/07/23 03:57:25;;;;;;;;;;;14.80;99.90;;;;;;4956508;28;20412;-74
2022/07/23 03:59:51;;;;;;;;;;;14.70;99.90;;;;;;4958368;28;20000;-74
2022/07/23 04:02:16;;;;;;;;;;;14.70;99.90;;;;;;4938319;28;19925;-74
2022/07/23 04:04:42;;;;;;;;;;;14.70;99.90;;;;;;4956076;28;20071;-74
2022/07/23 04:07:07;;;;;;;;;;;14.70;99.90;;;;;;4960958;28;19949;-75
2022/07/23 04:09:33;;;;;;;;;;;14.70;99.90;;;;;;4956764;28;19918;-74
2022/07/23 04:11:59;;;;;;;;;;;14.80;99.90;;;;;;4959399;28;20369;-73
2022/07/23 04:14:24;;;;;;;;;;;14.80;99.90;;;;;;4959905;28;19914;-74
2022/07/23 04:16:50;;;;;;;;;;;14.80;99.90;;;;;;4956690;28;19924;-74
2022/07/23 04:19:15;;;;;;;;;;;14.80;99.90;;;;;;4959294;28;19949;-74
2022/07/23 04:21:41;;;;;;;;;;;14.90;99.90;;;;;;4960466;28;20183;-75
2022/07/23 04:24:07;;;;;;;;;;;14.90;99.90;;;;;;4958789;28;20417;-74
2022/07/23 04:26:32;;;;;;;;;;;14.90;99.90;;;;;;4961531;28;19918;-75
2022/07/23 04:28:58;;;;;;;;;;;14.90;99.90;;;;;;4959303;28;19961;-74
2022/07/23 04:31:23;;;;;;;;;;;14.90;99.90;;;;;;4958821;28;19913;-74
2022/07/23 04:33:49;;;;;;;;;;;14.90;99.90;;;;;;4956340;28;19940;-75
2022/07/23 04:36:14;;;;;;;;;;;14.80;99.90;;;;;;4955463;28;19936;-75
2022/07/23 04:38:40;;;;;;;;;;;14.80;99.90;;;;;;4957202;28;19926;-74
2022/07/23 04:41:05;;;;;;;;;;;14.80;99.90;;;;;;4957987;28;19914;-74
2022/07/23 04:43:31;;;;;;;;;;;14.70;99.90;;;;;;4957546;28;20182;-74
2022/07/23 04:45:56;;;;;;;;;;;14.80;99.90;;;;;;4953580;28;20016;-74
2022/07/23 04:48:22;;;;;;;;;;;14.70;99.90;;;;;;4961224;28;19918;-75
2022/07/23 04:50:47;;;;;;;;;;;14.60;99.90;;;;;;4958381;28;19914;-74
2022/07/23 04:53:13;;;;;;;;;;;14.60;99.90;;;;;;4956856;28;19914;-74
2022/07/23 04:55:38;;;;;;;;;;;14.50;99.90;;;;;;4955390;28;20394;-74
2022/07/23 04:58:04;;;;;;;;;;;14.50;99.90;;;;;;4958733;28;19921;-74
2022/07/23 05:00:30;;;;;;;;;;;14.40;99.90;;;;;;4958636;28;19965;-74
2022/07/23 05:02:55;;;;;;;;;;;14.40;99.90;;;;;;4957214;28;20105;-73
2022/07/23 05:05:21;;;;;;;7.50;4.88;;;14.40;99.90;;;;;;4960077;28;19991;-74
2022/07/23 05:07:46;;;;;;;7.72;4.82;;;14.30;99.90;;;;;;4958083;28;20342;-74
2022/07/23 05:10:12;;;;;;;8.32;4.93;;;14.30;99.90;;;;;;4954895;28;20286;-74
2022/07/23 05:12:38;;;;;;;9.18;4.97;;;14.30;99.90;;;;;;4959034;28;20050;-74
2022/07/23 05:15:04;;;;;;;8.65;4.57;;;14.30;99.90;;;;;;4958843;28;20615;-74
2022/07/23 05:17:29;;;;;;;6.72;4.82;;;14.30;99.90;;;;;;4956131;28;20055;-74
2022/07/23 05:19:55;;;;;;;8.05;5.03;;;14.30;99.90;;;;;;4956129;28;20053;-74
2022/07/23 05:22:21;;;;;;;5.60;4.88;;;14.30;99.90;;;;;;4957577;28;20385;-74
2022/07/23 05:24:46;;;;;;;8.98;6.35;;;14.40;99.90;;;;;;4952402;28;20449;-74
2022/07/23 05:27:12;;;;;;;6.55;5.25;;;14.40;99.90;;;;;;4953614;28;20130;-74
2022/07/23 05:29:37;;;;;;;8.48;5.28;;;14.50;99.90;;;;;;4958064;28;20578;-73
2022/07/23 05:32:03;;;;;;;7.10;5.80;;;14.50;99.90;;;;;;4957744;28;20557;-74
2022/07/23 05:34:29;;;;;;;11.70;5.38;;;14.60;99.90;;;;;;4953336;28;20467;-74
2022/07/23 05:36:55;;;;;;;9.45;5.53;;;14.60;99.90;;;;;;4955846;28;20027;-74
2022/07/23 05:39:20;;;;;;;10.27;5.40;;;14.70;99.90;;;;;;4958788;28;20149;-75
2022/07/23 05:41:46;;;;;;;12.05;5.65;;;14.80;99.90;;;;;;4961204;28;20031;-74
2022/07/23 05:44:11;;;;;;;10.55;5.88;;;14.90;99.90;;;;;;4961197;28;20130;-75
2022/07/23 05:46:37;;;;;;;10.27;5.50;;;14.90;99.90;;;;;;4960224;28;20097;-75
2022/07/23 05:49:03;;;;;;;7.10;6.22;;;15.10;99.90;;;;;;4959716;28;20414;-74
2022/07/23 05:51:28;;;;;;;9.35;5.43;;;15.20;99.90;;;;;;4962640;28;20113;-74
2022/07/23 05:53:54;;;;;;;12.30;5.93;;;15.30;99.90;;;;;;4958335;28;20066;-74
2022/07/23 05:56:20;;;;;;;10.02;6.47;;;15.30;99.90;;;;;;4944057;28;20053;-74
2022/07/23 05:58:46;;;;;;;10.90;6.53;;;15.40;99.90;;;;;;4961859;28;20043;-74
2022/07/23 06:01:13;;;;;;;9.55;6.50;;;15.50;99.90;;;;;;4960372;28;20034;-74
2022/07/23 06:03:39;;;;;;;8.45;5.65;;;15.50;99.90;;;;;;4958484;28;20038;-75
2022/07/23 06:06:05;;;;;;;7.82;5.13;;;15.50;99.90;;;;;;4957990;28;20057;-74
2022/07/23 06:08:31;;;;;;;8.18;5.15;;;15.60;99.90;;;;;;4959849;28;20027;-74
2022/07/23 06:10:57;;;;;;;7.32;5.63;;;15.70;99.90;;;;;;4958886;28;20118;-74
2022/07/23 06:13:22;;;;;;;9.38;5.35;;;15.70;99.90;;;;;;4961592;28;20089;-74
2022/07/23 06:15:48;;;;;;;10.30;6.13;;;15.80;99.90;;;;;;4959247;28;20045;-74
2022/07/23 06:18:14;;;;;;;12.07;5.97;;;15.80;99.90;;;;;;4957874;28;20039;-74
2022/07/23 06:20:40;;;;;;;9.68;6.15;;;15.80;99.90;;;;;;4959009;28;20046;-75
2022/07/23 06:23:06;;;;;;;7.40;6.32;;;15.80;99.90;;;;;;4959673;28;20438;-75
2022/07/23 06:25:32;;;;;;;12.50;7.28;;;15.90;99.90;;;;;;4956925;28;20030;-74
2022/07/23 06:27:57;;;;;;;13.82;7.32;;;16.00;99.90;;;;;;4962188;28;20102;-74
2022/07/23 06:30:23;;;;;;;16.02;6.43;;;16.10;99.90;;;;;;4959432;28;20026;-74
2022/07/23 06:32:49;;;;;;;9.70;6.10;;;16.20;99.90;;;;;;4957028;28;20492;-74
2022/07/23 06:35:15;;;;;;;11.95;6.78;;;16.20;99.90;;;;;;4959539;28;20061;-74
2022/07/23 06:37:41;;;;;;;8.65;5.85;;;16.30;99.90;;;;;;4958107;28;21199;-74
2022/07/23 06:40:08;;;;;;;11.02;6.30;;;16.50;99.90;;;;;;4959905;28;20035;-75
2022/07/23 06:42:36;;;;;;;7.95;5.78;;;16.60;99.90;;;;;;4957329;28;20145;-74
2022/07/23 06:45:08;;;;;;;10.18;5.93;;;16.70;99.90;;;;;;4957858;28;20038;-75
2022/07/23 06:47:34;;;;;;;11.38;8.35;;;16.70;99.90;;;;;;4955921;28;20034;-74
2022/07/23 06:50:00;;;;;;;13.65;8.38;;;16.80;99.90;;;;;;4958822;28;20038;-75
2022/07/23 06:52:26;;;;;;;13.65;7.75;;;16.90;99.90;;;;;;4937106;28;20035;-74
2022/07/23 06:54:52;;;;;;;6.32;5.45;;;17.10;99.90;;;;;;4960505;28;20030;-74
2022/07/23 06:57:18;;;;;;;6.60;5.75;;;17.20;99.90;;;;;;4958705;28;20038;-74
2022/07/23 06:59:43;;;;;;;13.05;7.25;;;17.30;99.90;;;;;;4958330;28;20632;-74
2022/07/23 07:02:09;;;;;;;8.55;6.47;;;17.50;99.90;;;;;;4957680;28;20399;-74
2022/07/23 07:04:35;;;;;;;19.02;7.30;;;17.50;99.90;;;;;;4959449;28;20061;-75
2022/07/23 07:07:01;;;;;;;13.73;8.43;;;17.60;99.90;;;;;;4955145;28;20043;-74
2022/07/23 07:09:27;;;;;;;11.10;6.88;;;17.70;99.90;;;;;;4954059;28;20058;-74
2022/07/23 07:11:52;;;;;;;9.57;5.70;;;17.80;99.90;;;;;;4960104;28;20066;-74
2022/07/23 07:14:18;;;;;;;7.97;5.50;;;18.00;99.90;;;;;;4959193;28;20029;-75
2022/07/23 07:16:44;;;;;;;10.82;5.70;;;18.10;99.90;;;;;;4952324;28;20043;-76
2022/07/23 07:19:09;;;;;;;11.20;5.80;;;18.40;99.90;;;;;;4953804;28;20023;-75
2022/07/23 07:21:35;;;;;;;8.68;5.78;;;18.50;99.90;;;;;;4957152;28;20471;-75
2022/07/23 07:24:01;;;;;;;7.70;4.70;;;18.50;99.90;;;;;;4951335;28;20030;-75
2022/07/23 07:26:27;;;;;;;12.07;4.63;;;18.60;99.90;;;;;;4952029;28;20053;-76
2022/07/23 07:28:52;;;;;;;12.13;4.70;;;18.80;99.90;;;;;;4959926;28;20317;-74
2022/07/23 07:31:18;;;;;;;11.10;4.03;;;18.90;99.90;;;;;;4960052;28;20038;-75
2022/07/23 07:33:44;;;;;;;10.80;4.35;;;19.10;99.90;;;;;;4959637;28;20190;-75
2022/07/23 07:36:09;;;;;;;8.80;4.38;;;19.40;99.90;;;;;;4958443;28;20114;-75
2022/07/23 07:38:35;;;;;;;7.38;3.47;;;19.60;99.90;;;;;;4953632;28;20118;-76
2022/07/23 07:41:01;;;;;;;7.80;3.75;;;19.90;99.90;;;;;;4956007;28;20176;-75
2022/07/23 07:43:26;;;;;;;5.00;2.90;;;20.20;99.90;;;;;;4950878;28;20110;-76
2022/07/23 07:45:52;;;;;;;7.93;3.35;;;20.40;99.90;;;;;;4957175;28;20027;-76
2022/07/23 07:48:17;;;;;;;6.25;2.97;;;20.60;99.90;;;;;;4948703;28;20031;-76
2022/07/23 07:50:43;;;;;;;5.68;2.83;;;21.00;99.90;;;;;;4959726;28;20035;-76
2022/07/23 07:53:09;;;;;;;5.07;2.83;;;22.30;99.90;;;;;;4960145;28;20030;-76
2022/07/23 07:55:35;;;;;;;7.75;2.53;;;25.30;99.90;;;;;;4952772;28;20161;-76
2022/07/23 07:58:01;;;;;;;3.33;2.60;;;28.40;93.90;;;;;;4960801;28;20047;-75
2022/07/23 08:01:00;;;;;;;5.43;2.50;;;30.80;76.40;;;;;;6029910;23;20340;31
2022/07/23 08:03:26;;;;;;;6.63;2.53;;;32.30;59.60;;;;;;4927602;28;20043;-78
2022/07/23 08:05:51;;;;;;;4.68;3.00;;;34.50;51.80;;;;;;4943592;28;20571;-78
2022/07/23 08:08:17;;;;;;;6.18;2.92;;;35.30;47.90;;;;;;4936869;28;20031;-77
2022/07/23 08:10:43;;;;;;;4.43;3.03;;;35.20;46.00;;;;;;4931164;29;20121;-77
2022/07/23 08:13:14;;;;;;;6.38;3.33;;;34.90;45.30;;;;;;4930808;28;20065;-77
2022/07/23 08:15:40;;;;;;;5.63;2.88;;;34.80;45.00;;;;;;4927812;28;20046;-77
2022/07/23 08:18:07;;;;;;;10.13;3.13;;;34.90;46.70;;;;;;4916037;29;20058;-78
2022/07/23 08:20:33;;;;;;;6.07;2.97;;;35.70;44.80;;;;;;4929161;29;20411;-77
2022/07/23 08:23:02;;;;;;;4.60;2.58;;;36.90;43.90;;;;;;4949181;28;20105;-78
2022/07/23 08:25:31;;;;;;;4.47;2.88;;;37.60;41.50;;;;;;4948065;28;20035;-77
2022/07/23 08:27:58;;;;;;;5.22;2.80;;;37.60;40.30;;;;;;4931528;28;20295;-77
2022/07/23 08:30:24;;;;;;;5.55;2.47;;;37.80;39.20;;;;;;4931088;29;20550;-78
2022/07/23 08:32:51;;;;;;;9.93;3.10;;;35.10;41.90;;;;;;4951092;28;20027;-76
2022/07/23 08:35:18;;;;;;;5.40;3.40;;;34.70;44.40;;;;;;4935225;28;20145;-78
2022/07/23 08:37:44;;;;;;;7.55;2.85;;;31.50;47.60;;;;;;4938852;28;20130;-76
2022/07/23 08:40:11;;;;;;;7.00;2.22;;;30.30;54.00;;;;;;4937371;28;20315;-77
2022/07/23 08:42:37;;;;;;;7.68;2.38;;;32.10;51.20;;;;;;4932377;29;20035;-77
2022/07/23 08:45:03;;;;;;;6.72;2.30;;;33.80;47.90;;;;;;4932376;28;20643;-78
2022/07/23 08:47:29;;;;;;;5.68;2.35;;;34.60;46.20;;;;;;4918063;29;20028;-78
2022/07/23 08:49:58;;;;;;;6.82;2.10;;;36.20;44.20;;;;;;4929500;29;20385;-78
2022/07/23 08:52:25;;;;;;;2.80;1.95;;;34.20;40.90;;;;;;4933745;28;20027;-77
2022/07/23 08:54:51;;;;;;;3.47;1.38;;;32.80;45.50;;;;;;4929528;28;20039;-77
2022/07/23 08:57:17;;;;;;;3.85;1.65;;;34.00;45.30;;;;;;4930894;28;20549;-77
2022/07/23 08:59:42;;;;;;;4.47;2.40;;;33.70;44.20;;;;;;4938425;28;20031;-77
2022/07/23 09:02:08;;;;;;;6.22;2.30;;;35.00;44.40;;;;;;4934649;28;20043;-78
2022/07/23 09:04:34;;;;;;;6.47;2.00;;;36.00;42.40;;;;;;4932866;28;20035;-77
2022/07/23 09:07:01;;;;;;;6.18;2.28;;;37.10;40.20;;;;;;4928577;28;20507;-78
2022/07/23 09:09:30;;;;;;;9.02;2.38;;;37.60;39.80;;;;;;4929756;28;20504;-78
2022/07/23 09:12:06;;;;;;;5.95;2.30;;;39.10;39.70;;;;;;4936660;28;20027;-78
2022/07/23 09:14:41;;;;;;;6.45;2.38;;;38.60;35.80;;;;;;4936257;28;20059;-78
2022/07/23 09:17:14;;;;;;;8.13;2.75;;;37.40;36.70;;;;;;4942097;28;20392;-78
2022/07/23 09:19:41;;;;;;;5.93;2.50;;;36.50;42.00;;;;;;4941845;28;20135;-77
2022/07/23 09:22:28;;;;;;;5.47;2.55;;;35.60;39.30;;;;;;4939796;28;20281;-77
2022/07/23 09:25:13;;;;;;;5.85;2.25;;;35.60;40.50;;;;;;4938777;28;20067;-78
2022/07/23 09:27:57;;;;;;;5.90;2.42;;;36.60;39.70;;;;;;4936456;28;20285;-78
2022/07/23 09:30:28;;;;;;;4.07;2.13;;;37.30;38.80;;;;;;4940801;28;20031;-78
2022/07/23 09:33:20;;;;;;;6.53;2.42;;;37.10;39.40;;;;;;4943120;28;20047;-77
2022/07/23 09:35:54;;;;;;;4.95;2.40;;;35.90;39.10;;;;;;4940550;28;20043;-77
2022/07/23 09:38:22;;;;;;;5.93;2.17;;;33.20;40.60;;;;;;4931601;29;20522;-78
2022/07/23 09:41:09;;;;;;;4.85;2.25;;;32.90;42.60;;;;;;4925850;28;20645;-78
2022/07/23 09:43:35;;;;;;;4.90;2.67;;;31.40;46.60;;;;;;4927267;29;20027;-77
2022/07/23 09:46:28;;;;;;;6.57;2.63;;;30.00;48.40;;;;;;4932183;28;20031;-77
2022/07/23 09:48:58;;;;;;;5.93;2.60;;;28.60;54.70;;;;;;4927160;29;20027;-77
2022/07/23 09:51:37;;;;;;;9.82;3.33;;;27.70;60.30;;;;;;4924955;28;20031;-76
2022/07/23 09:54:03;;;;;;;5.68;2.72;;;27.90;66.90;;;;;;4926434;29;20031;-76
2022/07/23 09:56:30;;;;;;;5.13;3.00;;;28.30;66.30;;;;;;4925237;28;20051;-77
2022/07/23 09:59:12;;;;;;;6.20;2.78;;;28.80;66.20;;;;;;4934613;28;20035;-77
2022/07/23 10:01:38;;;;;;;6.05;2.97;;;28.80;67.10;;;;;;4928071;28;20048;-78
2022/07/23 10:04:07;;;;;;;3.22;1.90;;;30.20;58.80;;;;;;5433278;23;20062;-72
2022/07/23 10:06:33;;;;;;;5.05;2.30;;;31.90;51.60;;;;;;4968694;28;20209;-78
2022/07/23 10:09:01;;;;;;;4.97;2.10;;;33.70;52.70;;;;;;4960319;28;20026;-78
2022/07/23 10:11:28;;;;;;;3.53;1.60;;;34.50;46.60;;;;;;4958890;28;20552;-79
2022/07/23 10:13:55;;;;;;;4.90;2.08;;;34.70;43.10;;;;;;4970435;28;20034;-78
2022/07/23 10:16:22;;;;;;;4.82;1.83;;;34.10;42.50;;;;;;4942055;28;20153;-78
2022/07/23 10:18:48;;;;;;;5.35;1.90;;;34.00;41.50;;;;;;4959620;28;20034;-78
2022/07/23 10:21:23;;;;;;;4.97;2.33;;;33.40;42.30;;;;;;4967235;28;20041;-78
2022/07/23 10:24:12;;;;;;;4.13;1.80;;;33.40;43.40;;;;;;4968070;28;20062;-78
2022/07/23 10:27:18;;;;;;;3.75;1.90;;;34.00;42.70;;;;;;4961785;28;20138;-77
2022/07/23 10:30:09;;;;;;;4.63;1.63;;;34.70;40.80;;;;;;4934408;28;20042;-77
2022/07/23 10:32:51;;;;;;;3.45;1.55;;;34.10;44.70;;;;;;4969427;28;20168;-78
2022/07/23 10:35:33;;;;;;;6.35;2.30;;;34.40;41.40;;;;;;4972856;28;20109;-79
2022/07/23 10:38:12;;;;;;;3.63;1.75;;;34.40;41.60;;;;;;4970707;28;20034;-77
2022/07/23 10:41:08;;;;;;;4.38;1.65;;;34.30;41.80;;;;;;4967466;28;20030;-76
2022/07/23 10:43:33;;;;;;;4.07;1.83;;;34.70;41.90;;;;;;4950774;28;20033;-76
2022/07/23 10:48:34;;;;;;;7.10;2.65;;;34.10;43.30;;;;;;5042688;23;20062;-78
2022/07/23 10:53:58;;;;;;;3.80;2.03;;;34.00;39.20;;;;;;5335388;23;20492;-77
2022/07/23 10:57:12;;;;;;;3.08;1.73;;;33.50;41.70;;;;;;4970721;28;20140;-75
2022/07/23 11:00:09;;;;;;;4.90;1.60;;;33.90;40.30;;;;;;4950060;28;20054;-76
2022/07/23 11:02:36;;;;;;;2.53;1.42;;;33.80;40.10;;;;;;4973271;28;20377;-77
2022/07/23 11:05:06;;;;;;;2.83;1.65;;;33.50;43.10;;;;;;4967086;28;20022;-76
2022/07/23 11:07:31;;;;;;;1.75;1.20;;;33.50;40.00;;;;;;4948383;28;20042;-75
2022/07/23 11:09:57;;;;;;;3.67;1.40;;;33.40;39.90;;;;;;4974022;28;20045;-75
2022/07/23 11:12:29;;;;;;;2.75;1.35;;;33.80;42.10;;;;;;4973163;28;20062;-75
2022/07/23 11:15:03;;;;;;;3.00;1.42;;;33.40;38.30;;;;;;4972499;28;20238;-75
2022/07/23 11:17:30;;;;;;;5.03;1.17;;;33.70;42.20;;;;;;4970951;28;20041;-76
2022/07/23 11:20:11;;;;;;;2.22;1.00;;;34.00;36.90;;;;;;4971069;28;20038;-76
2022/07/23 11:22:43;;;;;;;7.60;1.45;;;33.80;39.80;;;;;;4315893;28;10001834;-75
2022/07/23 11:25:10;;;;;;;4.30;1.35;;;32.70;41.80;;;;;;4970030;28;20880;-75
2022/07/23 11:27:41;;;;;;;3.45;1.42;;;32.40;43.80;;;;;;4969443;28;20045;-76
2022/07/23 11:30:29;;;;;;;3.45;1.10;;;32.90;41.70;;;;;;4973288;28;20022;-77
2022/07/23 11:33:16;;;;;;;3.83;1.08;;;32.90;40.60;;;;;;4969579;28;20030;-76
2022/07/23 11:35:47;;;;;;;3.78;1.05;;;32.50;41.60;;;;;;4964900;28;20042;-75
2022/07/23 11:38:31;;;;;;;;;;;31.80;43.20;;;;;;4966255;28;20133;-75
2022/07/23 11:40:58;;;;;;;2.15;1.10;;;31.40;42.50;;;;;;4947097;28;20393;-75
2022/07/23 11:43:24;;;;;;;3.47;1.55;;;31.50;43.90;;;;;;4974101;28;20466;-75
2022/07/23 11:45:59;;;;;;;4.10;1.15;;;31.00;42.80;;;;;;4970625;28;20038;-75
2022/07/23 11:48:27;;;;;;;2.63;1.10;;;30.90;47.10;;;;;;4975725;28;20356;-75
2022/07/23 11:50:55;;;;;;;3.47;1.10;;;30.60;46.60;;;;;;4971068;28;20513;-75
2022/07/23 11:53:27;;;;;;;4.28;1.00;;;30.30;46.10;;;;;;4971191;28;20069;-78
2022/07/23 11:55:54;;;;;;;3.63;1.10;;;30.30;49.10;;;;;;4974343;28;20117;-75
2022/07/23 11:58:20;;;;;;;0.80;0.80;;;30.20;51.20;;;;;;4975636;28;20500;-76
2022/07/23 12:00:47;;;;;;;2.28;1.00;;;30.10;47.50;;;;;;4974087;28;20026;-77
2022/07/23 12:03:13;;;;;;;2.10;1.10;;;29.70;45.80;;;;;;4966629;28;20042;-76
2022/07/23 12:05:39;;;;;;;2.30;1.23;;;29.40;48.40;;;;;;4971042;28;20031;-75
2022/07/23 12:08:07;;;;;;;2.97;1.25;;;29.00;45.60;;;;;;4974897;28;20054;-76
2022/07/23 12:10:37;;;;;;;2.58;1.50;;;28.80;50.70;;;;;;4961772;28;20066;-77
2022/07/23 12:13:12;;;;;;;4.43;1.30;;;29.00;48.30;;;;;;4971083;28;20062;-74
2022/07/23 12:15:43;;;;;;;2.28;1.33;;;28.80;45.20;;;;;;4963946;28;20209;-77
2022/07/23 12:18:11;;;;;;;2.72;1.20;;;28.60;48.70;;;;;;4963018;28;20474;-77
2022/07/23 12:20:41;;;;;;;4.55;1.00;;;28.50;46.90;;;;;;4972133;28;20122;-77
2022/07/23 12:23:09;;;;;;;1.70;1.02;;;28.10;45.40;;;;;;4957871;28;20034;-76
2022/07/23 12:25:37;;;;;;;2.75;1.25;;;28.10;46.70;;;;;;4967969;28;20490;-75
2022/07/23 12:28:04;;;;;;;2.30;1.10;;;28.10;47.50;;;;;;4974302;28;20023;-77
2022/07/23 12:30:33;;;;;;;3.42;1.00;;;28.00;46.20;;;;;;4970649;28;20381;-75
2022/07/23 12:32:59;;;;;;;2.08;0.90;;;28.00;51.30;;;;;;4966654;28;20627;-76
2022/07/23 12:35:36;;;;;;;3.05;1.25;;;28.00;49.10;;;;;;4972485;28;20413;-77
2022/07/23 12:38:05;;;;;;;2.70;1.23;;;27.80;48.10;;;;;;4973607;28;20034;-77
2022/07/23 12:40:41;;;;;;;1.60;1.00;;;28.10;52.00;;;;;;4971142;28;20081;-76
2022/07/23 12:43:10;;;;;;;3.75;1.15;;;28.10;49.10;;;;;;4974761;28;20113;-76
2022/07/23 12:45:50;;;;;;;2.75;1.50;;;28.00;48.40;;;;;;4959125;28;20030;-77
2022/07/23 12:48:20;;;;;;;1.75;1.20;;;27.60;48.40;;;;;;4962734;28;20041;-76
2022/07/23 12:51:00;;;;;;;1.83;1.00;;;27.10;51.60;;;;;;4976787;28;20385;-76
2022/07/23 12:53:32;;;;;;;1.73;1.08;;;27.30;52.70;;;;;;4976577;28;20049;-76
2022/07/23 12:56:09;;;;;;;3.00;1.00;;;27.40;49.50;;;;;;4978817;28;20555;-76
2022/07/23 12:58:44;;;;;;;2.63;0.80;;;27.50;49.90;;;;;;4980284;28;20412;-75
2022/07/23 13:01:22;;;;;;;1.80;0.80;;;27.70;50.70;;;;;;4981169;28;20058;-75
2022/07/23 13:04:03;;;;;;;1.15;0.90;;;27.90;47.70;;;;;;4977764;28;20034;-75
2022/07/23 13:06:34;;;;;;;2.88;0.93;;;27.70;51.80;;;;;;4976670;28;20038;-74
2022/07/23 13:09:00;;;;;;;3.65;1.20;;;27.90;50.60;;;;;;4975645;28;20106;-76
2022/07/23 13:11:26;;;;;;;2.63;1.30;;;28.00;54.80;;;;;;4977183;28;20111;-80
2022/07/23 13:13:52;;;;;;;2.70;1.08;;;28.20;51.60;;;;;;4960736;28;20034;-77
2022/07/23 13:16:18;;;;;;;2.97;1.08;;;28.00;53.60;;;;;;4975960;28;20065;-80
2022/07/23 13:18:44;;;;;;;1.85;1.10;;;27.80;53.40;;;;;;4978140;28;20483;-82
2022/07/23 13:21:09;;;;;;;2.33;1.30;;;27.60;53.20;;;;;;4972286;28;20073;-77
2022/07/23 13:23:36;;;;;;;0.93;0.93;;;27.00;53.90;;;;;;4286165;28;10000657;-81
2022/07/23 13:26:02;;;;;;;2.47;1.30;;;26.80;54.60;;;;;;4985272;28;20176;-81
2022/07/23 13:28:28;;;;;;;2.25;1.25;;;26.60;54.80;;;;;;4972447;28;20061;-79